Terminal Aerodrome Forecast
Issued by NWS Portland, OR

Home | Current Version | Previous Version | Text Only | Print | Product List | Glossary On
Versions: 1 2 3 4 5 6 7 8 9 10 11 12 13 14 15 16 17 18 19 20 21 22 23 24 25 26 27 28 29 30 31 32 33 34 35 36 37 38 39 40 41 42
000
FTUS46 KPQR 180304 AAB
TAFHIO
TAF AMD
KHIO 180304Z 1803/1824 23010KT P6SM SCT020 BKN035 OVC050
     FM180900 22010KT P6SM SCT015 OVC040
     FM181300 19012G19KT 5SM -SHRASN BKN015 OVC030
     FM182000 18016G25KT 4SM -RA BR OVC015=

USA.gov is the U.S. government's official web portal to all federal, state and local government web resources and services.